createdAt,value
2018-10-06T00:00:20.103Z,23.90
2018-10-06T00:02:48.218Z,23.90
2018-10-06T00:05:16.546Z,23.90
2018-10-06T00:07:44.663Z,23.90
2018-10-06T00:10:12.782Z,24.00
2018-10-06T00:12:40.898Z,24.00
2018-10-06T00:15:09.052Z,24.00
2018-10-06T00:17:37.162Z,24.00
2018-10-06T00:20:05.825Z,24.00
2018-10-06T00:22:33.979Z,24.00
2018-10-06T00:25:02.118Z,24.00
2018-10-06T00:27:30.260Z,24.00
2018-10-06T00:29:58.374Z,24.00
2018-10-06T00:32:27.075Z,24.00
2018-10-06T00:34:55.194Z,24.10
2018-10-06T00:37:23.348Z,24.10
2018-10-06T00:39:51.482Z,24.10
2018-10-06T00:42:19.655Z,24.10
2018-10-06T00:44:47.961Z,24.10
2018-10-06T00:47:16.123Z,24.10
2018-10-06T00:49:44.246Z,24.10
2018-10-06T00:52:12.367Z,24.10
2018-10-06T00:54:40.506Z,24.10
2018-10-06T00:57:08.638Z,24.10
2018-10-06T00:59:36.760Z,24.10
2018-10-06T01:02:04.902Z,24.10
2018-10-06T01:04:33.048Z,24.10
2018-10-06T01:07:01.196Z,24.20
2018-10-06T01:09:29.319Z,24.10
2018-10-06T01:11:57.490Z,24.20
2018-10-06T01:14:25.657Z,24.20
2018-10-06T01:16:53.775Z,24.20
2018-10-06T01:19:21.934Z,24.20
2018-10-06T01:21:50.051Z,24.20
2018-10-06T01:24:18.167Z,24.20
2018-10-06T01:26:46.280Z,24.20
2018-10-06T01:29:14.405Z,24.20
2018-10-06T01:31:42.650Z,24.20
2018-10-06T01:34:10.759Z,24.20
2018-10-06T01:36:38.894Z,24.30
2018-10-06T01:39:07.257Z,24.30
2018-10-06T01:41:35.386Z,24.20
2018-10-06T01:44:03.525Z,24.30
2018-10-06T01:46:31.657Z,24.20
2018-10-06T01:48:59.799Z,24.30
2018-10-06T01:51:28.047Z,24.30
2018-10-06T01:53:56.209Z,24.30
2018-10-06T01:56:24.301Z,24.30
2018-10-06T01:58:52.446Z,24.30
2018-10-06T02:01:20.558Z,24.30
2018-10-06T02:03:48.707Z,24.30
2018-10-06T02:06:16.885Z,24.30
2018-10-06T02:08:45.002Z,24.30
2018-10-06T02:11:13.145Z,24.30
2018-10-06T02:13:41.280Z,24.30
2018-10-06T02:16:09.440Z,24.30
2018-10-06T02:18:37.554Z,24.30
2018-10-06T02:21:05.892Z,24.30
2018-10-06T02:23:34.186Z,24.40
2018-10-06T02:26:02.331Z,24.40
2018-10-06T02:28:30.462Z,24.40
2018-10-06T02:30:58.671Z,24.30
2018-10-06T02:33:26.783Z,24.40
2018-10-06T02:35:54.907Z,24.40
2018-10-06T02:38:23.026Z,24.40
2018-10-06T02:40:51.153Z,24.30
2018-10-06T02:43:19.270Z,24.30
2018-10-06T02:45:47.567Z,24.40
2018-10-06T02:48:15.674Z,24.40
2018-10-06T02:50:43.819Z,24.30
2018-10-06T02:53:11.943Z,24.40
2018-10-06T02:55:40.066Z,24.40
2018-10-06T02:58:08.227Z,24.40
2018-10-06T03:00:36.363Z,24.40
2018-10-06T03:03:04.471Z,24.30
2018-10-06T03:05:32.586Z,24.30
2018-10-06T03:08:01.045Z,24.30
2018-10-06T03:10:29.170Z,24.30
2018-10-06T03:12:57.318Z,24.30
2018-10-06T03:15:25.449Z,24.30
2018-10-06T03:17:53.710Z,24.30
2018-10-06T03:20:21.844Z,24.40
2018-10-06T03:22:49.984Z,24.30
2018-10-06T03:25:18.125Z,24.40
2018-10-06T03:27:46.260Z,24.30
2018-10-06T03:30:14.442Z,24.30
2018-10-06T03:32:42.671Z,24.30
2018-10-06T03:35:10.779Z,24.30
2018-10-06T03:37:38.893Z,24.30
2018-10-06T03:40:07.027Z,24.30
2018-10-06T03:42:35.161Z,24.30
2018-10-06T03:45:03.291Z,24.30
2018-10-06T03:47:31.408Z,24.30
2018-10-06T03:49:59.682Z,24.30
2018-10-06T03:52:27.863Z,24.30
2018-10-06T03:54:55.979Z,24.30
2018-10-06T03:57:24.207Z,24.30
2018-10-06T03:59:52.315Z,24.30
2018-10-06T04:02:20.444Z,24.30
2018-10-06T04:04:48.588Z,24.30
2018-10-06T04:07:16.708Z,24.30
2018-10-06T04:09:44.822Z,24.30
2018-10-06T04:12:12.990Z,24.30
2018-10-06T04:14:41.114Z,24.30
2018-10-06T04:17:09.258Z,24.30
2018-10-06T04:19:37.423Z,24.30
2018-10-06T04:22:05.561Z,24.30
2018-10-06T04:24:33.671Z,24.30
2018-10-06T04:27:01.787Z,24.30
2018-10-06T04:29:29.903Z,24.30
2018-10-06T04:31:58.024Z,24.20
2018-10-06T04:34:26.147Z,24.20
2018-10-06T04:36:54.307Z,24.20
2018-10-06T04:39:22.429Z,24.20
2018-10-06T04:41:50.571Z,24.20
2018-10-06T04:44:18.710Z,24.20
2018-10-06T04:46:46.850Z,24.20
2018-10-06T04:49:15.024Z,24.20
2018-10-06T04:51:43.138Z,24.20
2018-10-06T04:54:11.264Z,24.20
2018-10-06T04:56:39.378Z,24.20
2018-10-06T04:59:07.550Z,24.20
2018-10-06T05:01:35.667Z,24.10
2018-10-06T05:04:03.803Z,24.20
2018-10-06T05:06:31.966Z,24.20
2018-10-06T05:09:00.067Z,24.20
2018-10-06T05:11:28.234Z,24.20
2018-10-06T05:13:56.346Z,24.10
2018-10-06T05:16:24.479Z,24.10
2018-10-06T05:18:52.646Z,24.10
2018-10-06T05:21:20.797Z,24.10
2018-10-06T05:23:48.913Z,24.10
2018-10-06T05:26:17.050Z,24.10
2018-10-06T05:28:45.184Z,24.10
2018-10-06T05:31:13.310Z,24.10
2018-10-06T05:33:41.467Z,24.10
2018-10-06T05:36:09.609Z,24.10
2018-10-06T05:38:37.727Z,24.10
2018-10-06T05:41:06.226Z,24.10
2018-10-06T05:43:34.347Z,24.10
2018-10-06T05:46:02.587Z,24.10
2018-10-06T05:48:30.713Z,24.10
2018-10-06T05:50:59.196Z,24.10
2018-10-06T05:53:27.310Z,24.10
2018-10-06T05:55:55.458Z,24.10
2018-10-06T05:58:23.617Z,24.10
2018-10-06T06:00:51.746Z,24.10
2018-10-06T06:03:19.858Z,24.10
2018-10-06T06:05:48.092Z,24.10
2018-10-06T06:08:16.213Z,24.10
2018-10-06T06:10:44.355Z,24.10
2018-10-06T06:13:12.474Z,24.10
2018-10-06T06:15:40.669Z,24.00
2018-10-06T06:18:08.750Z,24.00
2018-10-06T06:20:36.976Z,24.10
2018-10-06T06:23:05.083Z,24.10
2018-10-06T06:25:33.199Z,24.10
2018-10-06T06:28:01.341Z,24.10
2018-10-06T06:30:29.484Z,24.10
2018-10-06T06:32:57.607Z,24.10
2018-10-06T06:35:25.744Z,24.00
2018-10-06T06:37:53.872Z,24.00
2018-10-06T06:40:21.991Z,24.00
2018-10-06T06:42:50.146Z,24.10
2018-10-06T06:45:18.291Z,24.00
2018-10-06T06:47:46.439Z,24.00
2018-10-06T06:50:14.554Z,24.00
2018-10-06T06:52:42.725Z,24.10
2018-10-06T06:55:10.859Z,24.00
2018-10-06T06:57:39.015Z,24.00
2018-10-06T07:00:07.148Z,24.10
2018-10-06T07:02:35.254Z,24.00
2018-10-06T07:05:03.497Z,24.00
2018-10-06T07:07:31.606Z,24.00
2018-10-06T07:09:59.740Z,24.00
2018-10-06T07:12:27.866Z,24.00
2018-10-06T07:14:56.007Z,24.00
2018-10-06T07:17:24.128Z,24.00
2018-10-06T07:19:52.255Z,23.90
2018-10-06T07:22:20.386Z,24.00
2018-10-06T07:24:48.507Z,23.90
2018-10-06T07:27:16.622Z,24.00
2018-10-06T07:29:44.770Z,24.00
2018-10-06T07:32:12.914Z,24.00
2018-10-06T07:34:41.043Z,24.00
2018-10-06T07:37:09.334Z,24.00
2018-10-06T07:39:37.482Z,24.00
2018-10-06T07:42:05.638Z,24.00
2018-10-06T07:44:33.782Z,24.00
2018-10-06T07:47:01.926Z,24.00
2018-10-06T07:49:30.075Z,24.00
2018-10-06T07:51:58.194Z,23.90
2018-10-06T07:54:26.307Z,24.00
2018-10-06T07:56:54.486Z,24.00
2018-10-06T07:59:22.641Z,24.00
2018-10-06T08:01:50.803Z,24.00
2018-10-06T08:04:18.914Z,24.00
2018-10-06T08:06:47.042Z,24.00
2018-10-06T08:09:15.203Z,24.20
2018-10-06T08:11:43.338Z,24.20
2018-10-06T08:14:11.553Z,24.20
2018-10-06T08:16:39.673Z,24.30
2018-10-06T08:19:07.838Z,24.30
2018-10-06T08:21:35.972Z,24.30
2018-10-06T08:24:04.145Z,24.30
2018-10-06T08:26:32.342Z,24.30
2018-10-06T08:29:00.427Z,24.40
2018-10-06T08:31:28.567Z,24.40
2018-10-06T08:33:56.783Z,24.40
2018-10-06T08:36:25.018Z,24.40
2018-10-06T08:38:53.123Z,24.40
2018-10-06T08:41:21.255Z,24.50
2018-10-06T08:43:49.419Z,24.50
2018-10-06T08:46:17.642Z,24.50
2018-10-06T08:48:45.823Z,24.50
2018-10-06T08:51:13.951Z,24.50
2018-10-06T08:53:42.087Z,24.50
2018-10-06T08:56:10.276Z,24.50
2018-10-06T08:58:38.338Z,24.50
2018-10-06T09:01:06.749Z,24.30
2018-10-06T09:03:34.878Z,24.30
2018-10-06T09:06:03.181Z,24.40
2018-10-06T09:08:31.486Z,24.50
2018-10-06T09:10:59.800Z,24.60
2018-10-06T09:13:27.832Z,24.60
2018-10-06T09:15:56.082Z,24.70
2018-10-06T09:18:24.190Z,24.70
2018-10-06T09:20:52.530Z,24.70
2018-10-06T09:23:20.859Z,24.70
2018-10-06T09:25:49.010Z,24.60
2018-10-06T09:28:17.211Z,24.70
2018-10-06T09:30:45.378Z,24.80
2018-10-06T09:33:13.632Z,24.80
2018-10-06T09:35:41.779Z,24.80
2018-10-06T09:38:09.898Z,24.80
2018-10-06T09:40:38.178Z,24.80
2018-10-06T09:43:06.846Z,24.90
2018-10-06T09:45:35.031Z,24.90
2018-10-06T09:48:03.251Z,24.90
2018-10-06T09:50:31.492Z,24.90
2018-10-06T09:52:59.643Z,24.90
2018-10-06T09:55:27.919Z,24.90
2018-10-06T09:57:56.030Z,24.90
2018-10-06T10:00:29.750Z,25.00
2018-10-06T10:03:03.354Z,25.00
2018-10-06T10:05:37.161Z,25.00
2018-10-06T10:08:05.236Z,25.10
2018-10-06T10:10:33.371Z,25.10
2018-10-06T10:13:01.614Z,25.20
2018-10-06T10:15:29.816Z,25.10
2018-10-06T10:17:58.018Z,25.20
2018-10-06T10:20:26.142Z,25.20
2018-10-06T10:22:54.460Z,25.20
2018-10-06T10:25:22.571Z,25.20
2018-10-06T10:27:50.714Z,25.20
2018-10-06T10:30:18.850Z,25.30
2018-10-06T10:32:47.023Z,25.30
2018-10-06T10:35:15.156Z,25.30
2018-10-06T10:37:43.308Z,25.30
2018-10-06T10:40:11.423Z,25.30
2018-10-06T10:42:39.561Z,25.40
2018-10-06T10:45:07.692Z,25.40
2018-10-06T10:47:35.864Z,25.40
2018-10-06T10:50:04.007Z,25.40
2018-10-06T10:52:32.194Z,25.40
2018-10-06T10:55:00.372Z,25.50
2018-10-06T10:57:28.944Z,25.50
2018-10-06T10:59:57.308Z,25.50
2018-10-06T11:02:25.354Z,25.60
2018-10-06T11:04:53.578Z,25.60
2018-10-06T11:07:21.706Z,25.60
2018-10-06T11:09:50.114Z,25.70
2018-10-06T11:12:18.286Z,25.70
2018-10-06T11:14:46.448Z,25.80
2018-10-06T11:17:14.615Z,25.70
2018-10-06T11:19:42.706Z,25.80
2018-10-06T11:22:10.850Z,25.80
2018-10-06T11:24:38.997Z,25.80
2018-10-06T11:27:07.169Z,25.80
2018-10-06T11:29:35.449Z,25.90
2018-10-06T11:32:03.644Z,25.90
2018-10-06T11:34:31.766Z,25.90
2018-10-06T11:36:59.891Z,25.80
2018-10-06T11:39:28.231Z,25.70
2018-10-06T11:41:56.422Z,25.60
2018-10-06T11:44:24.687Z,25.70
2018-10-06T11:46:52.819Z,25.60
2018-10-06T11:49:20.954Z,25.60
2018-10-06T11:51:49.162Z,25.80
2018-10-06T11:54:17.366Z,25.70
2018-10-06T11:56:45.551Z,25.80
2018-10-06T11:59:13.739Z,25.70
2018-10-06T12:01:41.962Z,25.60
2018-10-06T12:04:10.156Z,25.60
2018-10-06T12:06:38.402Z,25.60
2018-10-06T12:09:07.912Z,25.70
2018-10-06T12:11:36.438Z,25.70
2018-10-06T12:14:04.694Z,25.60
2018-10-06T12:16:32.826Z,25.70
2018-10-06T12:19:00.943Z,25.70
2018-10-06T12:21:29.118Z,25.70
2018-10-06T12:23:57.478Z,25.70
2018-10-06T12:26:25.694Z,25.80
2018-10-06T12:28:53.842Z,25.90
2018-10-06T12:31:22.022Z,25.80
2018-10-06T12:33:50.303Z,25.70
2018-10-06T12:36:18.450Z,25.70
2018-10-06T12:38:46.578Z,25.80
2018-10-06T12:41:14.737Z,25.80
2018-10-06T12:43:42.837Z,25.80
2018-10-06T12:46:10.958Z,25.70
2018-10-06T12:48:39.058Z,25.80
2018-10-06T12:51:07.226Z,25.90
2018-10-06T12:53:35.344Z,25.90
2018-10-06T12:56:03.469Z,25.80
2018-10-06T12:58:31.586Z,25.80
2018-10-06T13:00:59.702Z,25.80
2018-10-06T13:03:27.810Z,25.70
2018-10-06T13:05:56.000Z,25.80
2018-10-06T13:08:24.110Z,25.80
2018-10-06T13:10:52.329Z,25.90
2018-10-06T13:13:20.513Z,25.80
2018-10-06T13:15:48.643Z,25.80
2018-10-06T13:18:16.766Z,25.80
2018-10-06T13:20:44.899Z,25.80
2018-10-06T13:23:13.080Z,25.80
2018-10-06T13:25:41.219Z,25.70
2018-10-06T13:28:09.534Z,25.50
2018-10-06T13:30:37.690Z,25.50
2018-10-06T13:33:05.898Z,25.50
2018-10-06T13:35:34.064Z,25.60
2018-10-06T13:38:02.194Z,25.40
2018-10-06T13:40:30.315Z,25.50
2018-10-06T13:42:58.418Z,25.50
2018-10-06T13:45:26.655Z,25.50
2018-10-06T13:47:54.946Z,25.50
2018-10-06T13:50:23.123Z,25.50
2018-10-06T13:52:51.418Z,25.50
2018-10-06T13:55:19.534Z,25.50
2018-10-06T13:57:47.792Z,25.50
2018-10-06T14:00:15.934Z,25.60
2018-10-06T14:02:44.062Z,25.60
2018-10-06T14:05:12.306Z,25.60
2018-10-06T14:07:40.450Z,25.60
2018-10-06T14:10:08.598Z,25.60
2018-10-06T14:12:36.742Z,25.70
2018-10-06T14:15:05.019Z,25.70
2018-10-06T14:17:33.147Z,25.60
2018-10-06T14:20:01.300Z,25.60
2018-10-06T14:22:29.486Z,25.70
2018-10-06T14:24:57.591Z,25.70
2018-10-06T14:27:25.808Z,25.70
2018-10-06T14:29:53.918Z,25.80
2018-10-06T14:32:22.156Z,25.80
2018-10-06T14:34:50.440Z,25.80
2018-10-06T14:37:18.590Z,25.80
2018-10-06T14:39:46.859Z,25.80
2018-10-06T14:42:15.098Z,25.90
2018-10-06T14:44:43.238Z,25.90
2018-10-06T14:47:11.483Z,25.90
2018-10-06T14:49:39.583Z,25.90
2018-10-06T14:52:07.822Z,25.90
2018-10-06T14:54:35.978Z,26.00
2018-10-06T14:57:04.169Z,26.00
2018-10-06T14:59:32.294Z,26.10
2018-10-06T15:02:00.418Z,26.20
2018-10-06T15:04:28.538Z,26.20
2018-10-06T15:06:56.805Z,26.20
2018-10-06T15:09:24.972Z,26.30
2018-10-06T15:11:53.078Z,26.20
2018-10-06T15:14:21.207Z,26.20
2018-10-06T15:16:49.451Z,26.20
2018-10-06T15:19:17.586Z,26.20
2018-10-06T15:21:45.774Z,26.10
2018-10-06T15:24:13.901Z,26.10
2018-10-06T15:26:42.049Z,26.10
2018-10-06T15:29:10.157Z,26.00
2018-10-06T15:31:38.327Z,26.10
2018-10-06T15:34:07.460Z,26.10
2018-10-06T15:36:35.718Z,26.00
2018-10-06T15:39:04.741Z,25.90
2018-10-06T15:41:32.885Z,25.90
2018-10-06T15:44:01.061Z,25.90
2018-10-06T15:46:29.202Z,25.90
2018-10-06T15:48:57.323Z,25.90
2018-10-06T15:51:25.603Z,25.90
2018-10-06T15:53:53.774Z,25.80
2018-10-06T15:56:21.923Z,25.80
2018-10-06T15:58:50.095Z,25.60
2018-10-06T16:01:18.257Z,25.60
2018-10-06T16:03:46.386Z,25.70
2018-10-06T16:06:14.570Z,25.70
2018-10-06T16:08:42.723Z,25.60
2018-10-06T16:11:10.855Z,25.60
2018-10-06T16:13:39.010Z,25.70
2018-10-06T16:16:07.165Z,25.70
2018-10-06T16:18:35.275Z,25.70
2018-10-06T16:21:03.656Z,25.70
2018-10-06T16:23:31.795Z,25.70
2018-10-06T16:25:59.904Z,25.80
2018-10-06T16:28:28.389Z,25.80
2018-10-06T16:30:56.851Z,25.80
2018-10-06T16:33:25.020Z,25.80
2018-10-06T16:35:53.157Z,25.80
2018-10-06T16:38:21.335Z,25.80
2018-10-06T16:40:49.451Z,25.80
2018-10-06T16:43:17.706Z,25.80
2018-10-06T16:45:45.850Z,25.80
2018-10-06T16:48:14.027Z,25.70
2018-10-06T16:50:42.377Z,25.70
2018-10-06T16:53:10.646Z,25.70
2018-10-06T16:55:38.766Z,25.70
2018-10-06T16:58:06.862Z,25.70
2018-10-06T17:00:35.067Z,25.70
2018-10-06T17:03:03.213Z,25.70
2018-10-06T17:05:31.366Z,25.70
2018-10-06T17:07:59.527Z,25.60
2018-10-06T17:10:27.690Z,25.60
2018-10-06T17:12:55.860Z,25.50
2018-10-06T17:15:23.995Z,25.50
2018-10-06T17:17:52.138Z,25.50
2018-10-06T17:20:20.303Z,25.50
2018-10-06T17:22:48.431Z,25.50
2018-10-06T17:25:16.653Z,25.50
2018-10-06T17:27:45.023Z,25.50
2018-10-06T17:30:13.186Z,25.60
2018-10-06T17:32:41.356Z,25.50
2018-10-06T17:35:09.603Z,25.50
2018-10-06T17:37:37.746Z,25.50
2018-10-06T17:40:05.854Z,25.50
2018-10-06T17:42:34.000Z,25.50
2018-10-06T17:45:02.260Z,25.50
2018-10-06T17:47:30.395Z,25.50
2018-10-06T17:49:58.680Z,25.50
2018-10-06T17:52:26.657Z,25.50
2018-10-06T17:54:54.782Z,25.50
2018-10-06T17:57:22.985Z,25.40
2018-10-06T17:59:51.098Z,25.40
2018-10-06T18:02:19.238Z,25.40
2018-10-06T18:04:47.386Z,25.40
2018-10-06T18:07:15.462Z,25.40
2018-10-06T18:09:43.636Z,25.40
2018-10-06T18:12:11.742Z,25.40
2018-10-06T18:14:39.895Z,25.40
2018-10-06T18:17:08.157Z,25.40
2018-10-06T18:19:36.266Z,25.30
2018-10-06T18:22:04.419Z,25.30
2018-10-06T18:24:32.650Z,25.40
2018-10-06T18:27:00.813Z,25.30
2018-10-06T18:29:28.988Z,25.30
2018-10-06T18:31:57.115Z,25.30
2018-10-06T18:34:25.373Z,25.30
2018-10-06T18:36:53.589Z,25.30
2018-10-06T18:39:21.651Z,25.30
2018-10-06T18:41:49.770Z,25.20
2018-10-06T18:44:17.890Z,25.20
2018-10-06T18:46:46.244Z,25.30
2018-10-06T18:49:14.418Z,25.20
2018-10-06T18:51:42.543Z,25.20
2018-10-06T18:54:10.703Z,25.20
2018-10-06T18:56:38.837Z,25.20
2018-10-06T18:59:07.067Z,25.20
2018-10-06T19:01:35.422Z,25.10
2018-10-06T19:04:03.721Z,25.20
2018-10-06T19:06:31.696Z,25.10
2018-10-06T19:08:59.831Z,25.10
2018-10-06T19:11:28.005Z,25.10
2018-10-06T19:13:56.173Z,25.10
2018-10-06T19:16:24.321Z,25.10
2018-10-06T19:18:52.482Z,25.10
2018-10-06T19:21:20.713Z,25.10
2018-10-06T19:23:48.838Z,25.10
2018-10-06T19:26:16.983Z,25.10
2018-10-06T19:28:45.134Z,25.10
2018-10-06T19:31:13.247Z,25.10
2018-10-06T19:33:41.555Z,25.10
2018-10-06T19:36:09.723Z,25.10
2018-10-06T19:38:37.831Z,25.10
2018-10-06T19:41:05.996Z,25.10
2018-10-06T19:43:34.118Z,25.10
2018-10-06T19:46:02.336Z,25.10
2018-10-06T19:48:30.412Z,25.10
2018-10-06T19:50:58.574Z,25.10
2018-10-06T19:53:26.694Z,25.10
2018-10-06T19:55:54.834Z,25.10
2018-10-06T19:58:23.160Z,25.10
2018-10-06T20:00:51.294Z,25.10
2018-10-06T20:03:19.482Z,25.10
2018-10-06T20:05:47.610Z,25.10
2018-10-06T20:08:16.077Z,25.10
2018-10-06T20:10:44.186Z,25.10
2018-10-06T20:13:12.341Z,25.10
2018-10-06T20:15:40.519Z,25.00
2018-10-06T20:18:08.819Z,25.00
2018-10-06T20:20:37.006Z,25.10
2018-10-06T20:23:05.148Z,25.10
2018-10-06T20:25:33.282Z,25.10
2018-10-06T20:28:01.418Z,25.10
2018-10-06T20:30:29.523Z,25.10
2018-10-06T20:32:57.770Z,25.00
2018-10-06T20:35:25.881Z,25.00
2018-10-06T20:37:53.998Z,25.00
2018-10-06T20:40:22.164Z,25.10
2018-10-06T20:42:50.426Z,25.10
2018-10-06T20:45:18.692Z,25.10
2018-10-06T20:47:46.818Z,25.10
2018-10-06T20:50:14.962Z,25.00
2018-10-06T20:52:43.316Z,25.00
2018-10-06T20:55:11.439Z,25.10
2018-10-06T20:57:39.571Z,25.00
2018-10-06T21:00:08.062Z,25.00
2018-10-06T21:02:36.199Z,25.00
2018-10-06T21:05:04.410Z,25.00
2018-10-06T21:07:32.559Z,25.00
2018-10-06T21:10:00.702Z,25.00
2018-10-06T21:12:28.838Z,25.00
2018-10-06T21:14:56.977Z,25.00
2018-10-06T21:17:25.276Z,25.00
2018-10-06T21:19:53.387Z,25.00
2018-10-06T21:22:21.523Z,25.00
2018-10-06T21:24:49.674Z,25.10
2018-10-06T21:27:17.794Z,25.00
2018-10-06T21:29:46.119Z,25.10
2018-10-06T21:32:14.100Z,25.10
2018-10-06T21:34:42.230Z,25.10
2018-10-06T21:37:10.370Z,25.10
2018-10-06T21:39:38.536Z,25.10
2018-10-06T21:42:06.658Z,25.10
2018-10-06T21:44:34.962Z,25.10
2018-10-06T21:47:03.282Z,25.10
2018-10-06T21:49:31.479Z,25.10
2018-10-06T21:51:59.680Z,25.10
2018-10-06T21:54:27.783Z,25.10
2018-10-06T21:56:55.962Z,25.10
2018-10-06T21:59:24.134Z,25.10
2018-10-06T22:01:52.244Z,25.10
2018-10-06T22:04:20.367Z,25.10
2018-10-06T22:06:48.526Z,25.10
2018-10-06T22:09:16.682Z,25.10
2018-10-06T22:11:44.802Z,25.20
2018-10-06T22:14:12.993Z,25.20
2018-10-06T22:16:41.127Z,25.20
2018-10-06T22:19:09.256Z,25.20
2018-10-06T22:21:37.359Z,25.20
2018-10-06T22:24:05.522Z,25.20
2018-10-06T22:26:33.637Z,25.20
2018-10-06T22:29:01.826Z,25.20
2018-10-06T22:31:29.902Z,25.20
2018-10-06T22:33:58.150Z,25.20
2018-10-06T22:36:26.291Z,25.20
2018-10-06T22:38:54.437Z,25.20
2018-10-06T22:41:22.594Z,25.20
2018-10-06T22:43:50.771Z,25.20
2018-10-06T22:46:18.889Z,25.20
2018-10-06T22:48:47.002Z,25.20
2018-10-06T22:51:15.201Z,25.20
2018-10-06T22:53:43.315Z,25.20
2018-10-06T22:56:11.490Z,25.20
2018-10-06T22:58:39.594Z,25.20
2018-10-06T23:01:07.725Z,25.20
2018-10-06T23:03:35.944Z,25.20
2018-10-06T23:06:04.074Z,25.30
2018-10-06T23:08:32.217Z,25.30
2018-10-06T23:11:00.326Z,25.20
2018-10-06T23:13:28.461Z,25.30
2018-10-06T23:15:56.566Z,25.30
2018-10-06T23:18:24.734Z,25.30
2018-10-06T23:20:52.846Z,25.30
2018-10-06T23:23:20.970Z,25.30
2018-10-06T23:25:49.078Z,25.30
2018-10-06T23:28:17.199Z,25.30
2018-10-06T23:30:45.334Z,25.30
2018-10-06T23:33:13.559Z,25.30
2018-10-06T23:35:41.674Z,25.30
2018-10-06T23:38:09.810Z,25.30
2018-10-06T23:40:37.936Z,25.30
2018-10-06T23:43:06.250Z,25.30
2018-10-06T23:45:34.370Z,25.30
2018-10-06T23:48:02.549Z,25.30
2018-10-06T23:50:30.673Z,25.30
2018-10-06T23:52:58.809Z,25.30
2018-10-06T23:55:27.070Z,25.30
2018-10-06T23:57:55.190Z,25.30
